الصفحة الرئيسية
METAR-TAF:

METAR-TAF

مطار :

مطار هونغ كونغ الدولي

هونغ كونغ, جمهورية الصين الشعبية

دائرة عرض: 22-19N, خط طول: 113-55E, ارتفاع: 9 متر

مراقبة الطقس الحالي

تاريخ ووقت الإصدار 26 دقيقة قبل الساعة 02:30UTC
ريح 7 عقدةمن اتجاهات متغيرة
درجة الحرارة 31°درجة مئوية
الرطوبة 71%
ضغط 1007 hPa
الرؤية 10 كم أو أكثر
غيوم قليلة على ارتفاع 1500 قدم
غيوم متفرقة على ارتفاع 3000 قدم

METAR: VHHH 080230Z VRB07KT 9999 FEW015 SCT030 31/25 Q1007 NOSIG

زمن: 10:56 (02:56 UTC)

توقعات

تاريخ ووقت الإصدار 3ساعات و 56 دقيقة قبل الساعة 23:00UTC
التوقعات صالحة من08 الساعة 00 UTC إلى 09 الساعة 06 UTC
ريح 5 عقدةمن اتجاهات متغيرة
الرؤية 10 كم أو أكثر
غيوم قليلة على ارتفاع 1500 قدم
مؤقت
من 08 الساعة 02 UTC إلى 08 الساعة 09 UTC
ريح 10 عقدة من الغرب/الجنوب الغربي
مؤقت
من 08 الساعة 09 UTC إلى 08 الساعة 17 UTC
ريح 10 عقدة من الجنوب الشرقي
مؤقت
من 09 الساعة 02 UTC إلى 09 الساعة 06 UTC
ريح 10 عقدة من الغرب/الجنوب الغربي

TAF: VHHH 072300Z 0800/0906 VRB05KT 9999 FEW015 TX34/0806Z TX35/0906Z TN28/0822Z TEMPO 0802/0809 24010KT TEMPO 0809/0817 14010KT TEMPO 0902/0906 24010KT

أرصاد الطقس والتوقعات من أكثر من 4000 مطار (تقارير الطقس للمطار METAR والتنبؤ بالطقس بالمطارTAF).

المحطات المتاحة هي النقط الصفراء والحمراء على الخريطة.

حرك المؤشر فوق النقطة لمعرفة اسم المحطة.

ثم انقر لمعرفة أرصاد وتوقعات الطقس.

لتغيير الخارطة: اضغط على الأزرار الخضراء مع رمز الصليب الأسود للتكبير. على الزر الأخضر مع شرطة للتصغير، أو على الأسهم الخضراء للخرائط المجاورة.


METAR-TAF: